Time;durP1;ratioP1;P1;durP2;ratioP2;P2;SDS_P1;SDS_P2;PMS_P1;PMS_P2;Temp;Humidity;BMP_temperature;BMP_pressure;BME280_temperature;BME280_humidity;BME280_pressure;Samples;Min_cycle;Max_cycle;Signal;HPM_P1;HPM_P2
2023/08/21 00:01:08;;;;;;;3.63;3.33;;;25.00;64.70;24.50;96996.00;;;;5014064;28;20200;-84
2023/08/21 00:03:36;;;;;;;3.93;3.67;;;25.00;64.60;24.50;96999.00;;;;5026573;28;20229;-84
2023/08/21 00:06:03;;;;;;;4.57;4.23;;;24.90;64.50;24.40;97008.00;;;;5009897;28;20221;-84
2023/08/21 00:08:30;;;;;;;3.50;3.30;;;24.90;64.50;24.40;96997.00;;;;5025867;28;20200;-83
2023/08/21 00:10:57;;;;;;;3.67;3.47;;;24.90;64.50;24.40;96985.00;;;;5018124;28;20208;-84
2023/08/21 00:13:24;;;;;;;3.07;2.87;;;24.90;64.60;24.30;96992.00;;;;5026537;28;20189;-83
2023/08/21 00:15:54;;;;;;;4.07;3.80;;;24.90;64.70;24.30;96987.00;;;;5017325;28;20217;-84
2023/08/21 00:18:21;;;;;;;4.30;4.00;;;24.80;64.80;24.30;96984.00;;;;5018288;28;20211;-83
2023/08/21 00:20:48;;;;;;;3.83;3.53;;;24.80;64.80;24.20;96988.00;;;;5025173;28;20288;-83
2023/08/21 00:23:16;;;;;;;3.73;3.43;;;24.80;64.90;24.20;96991.00;;;;5025668;28;20204;-83
2023/08/21 00:25:47;;;;;;;3.73;3.43;;;24.70;64.90;24.20;96987.00;;;;5025906;28;20217;-83
2023/08/21 00:28:15;;;;;;;3.70;3.40;;;24.70;65.20;24.20;96985.00;;;;5023871;28;20205;-83
2023/08/21 00:30:43;;;;;;;3.53;3.23;;;24.70;65.20;24.20;96989.00;;;;5014345;28;20576;-83
2023/08/21 00:33:12;;;;;;;3.83;3.53;;;24.70;65.40;24.10;96985.00;;;;5022972;28;20221;-83
2023/08/21 00:35:39;;;;;;;3.30;3.10;;;24.70;65.40;24.10;96976.00;;;;5024078;28;20212;-83
2023/08/21 00:38:06;;;;;;;3.60;3.40;;;24.60;65.40;24.10;96977.00;;;;5026601;28;20193;-83
2023/08/21 00:40:33;;;;;;;4.37;3.87;;;24.60;65.40;24.00;96979.00;;;;5029016;28;20201;-83
2023/08/21 00:43:00;;;;;;;3.87;3.60;;;24.60;65.50;24.00;96975.00;;;;5030418;28;20646;-83
2023/08/21 00:45:28;;;;;;;3.63;3.37;;;24.60;65.50;24.00;96975.00;;;;5016923;28;20303;-84
2023/08/21 00:47:55;;;;;;;3.63;3.43;;;24.50;65.50;24.00;96978.00;;;;5025217;28;20287;-84
2023/08/21 00:50:24;;;;;;;3.33;3.13;;;24.50;65.60;23.90;96981.00;;;;5020212;28;20197;-83
2023/08/21 00:52:52;;;;;;;4.03;3.73;;;24.50;65.80;23.90;96975.00;;;;5019149;28;20307;-84
2023/08/21 00:55:19;;;;;;;4.07;3.47;;;24.40;65.80;23.90;96978.00;;;;5023204;28;20300;-83
2023/08/21 00:57:47;;;;;;;3.87;3.57;;;24.40;65.80;23.80;96971.00;;;;5014290;28;20189;-83
2023/08/21 01:00:15;;;;;;;3.97;3.67;;;24.40;65.90;23.80;96975.00;;;;5031737;28;20305;-84
2023/08/21 01:02:42;;;;;;;3.77;3.57;;;24.40;66.00;23.80;96988.00;;;;5024197;28;20202;-84
2023/08/21 01:05:11;;;;;;;4.20;3.90;;;24.40;66.20;23.70;96974.00;;;;5023549;28;20772;-83
2023/08/21 01:08:02;;;;;;;4.43;4.07;;;24.30;66.30;23.70;96977.00;;;;5020063;28;20198;-84
2023/08/21 01:10:46;;;;;;;4.20;3.80;;;24.30;66.90;23.70;96975.00;;;;5017763;28;20304;-83
2023/08/21 01:13:35;;;;;;;5.10;3.50;;;24.30;66.80;23.70;96974.00;;;;5023883;28;20221;-83
2023/08/21 01:16:06;;;;;;;4.07;3.73;;;24.20;66.90;23.70;96976.00;;;;5022570;28;20305;-83
2023/08/21 01:18:38;;;;;;;4.37;3.97;;;24.20;66.90;23.70;96971.00;;;;5022718;28;20288;-83
2023/08/21 01:21:06;;;;;;;4.30;3.90;;;24.20;67.10;23.70;96983.00;;;;5014598;28;20228;-83
2023/08/21 01:23:37;;;;;;;3.60;3.40;;;24.20;67.40;23.70;96982.00;;;;5021695;28;20201;-83
2023/08/21 01:26:04;;;;;;;3.70;3.50;;;24.20;67.50;23.70;96983.00;;;;5022637;28;20227;-84
2023/08/21 01:28:33;;;;;;;4.40;4.03;;;24.20;67.50;23.70;96984.00;;;;5032689;28;20663;-82
2023/08/21 01:31:11;;;;;;;4.50;3.70;;;24.20;67.60;23.70;96981.00;;;;5032989;28;20217;-83
2023/08/21 01:33:47;;;;;;;5.43;4.07;;;24.20;67.80;23.70;96982.00;;;;5026279;28;20216;-83
2023/08/21 01:36:15;;;;;;;4.23;3.93;;;24.20;67.90;23.70;96976.00;;;;5028929;28;20224;-83
2023/08/21 01:38:45;;;;;;;4.20;3.90;;;24.20;67.80;23.70;96974.00;;;;5030008;28;20231;-83
2023/08/21 01:41:12;;;;;;;4.67;4.27;;;24.20;68.00;23.70;96971.00;;;;5021683;28;20380;-83
2023/08/21 01:43:39;;;;;;;4.50;4.10;;;24.20;67.90;23.70;96973.00;;;;5034531;28;20245;-83
2023/08/21 01:46:08;;;;;;;4.13;3.87;;;24.20;68.00;23.70;96970.00;;;;5022165;28;20233;-83
2023/08/21 01:48:36;;;;;;;4.33;3.93;;;24.20;68.10;23.70;96967.00;;;;5024844;28;20214;-83
2023/08/21 01:51:04;;;;;;;4.07;3.77;;;24.20;68.10;23.60;96973.00;;;;5029377;28;20261;-84
2023/08/21 01:53:31;;;;;;;4.23;3.93;;;24.10;68.30;23.60;96979.00;;;;5031849;28;20647;-83
2023/08/21 01:56:00;;;;;;;3.90;3.70;;;24.10;68.50;23.60;96974.00;;;;5039563;28;20219;-83
2023/08/21 01:58:27;;;;;;;4.80;4.10;;;24.10;68.90;23.60;96971.00;;;;5029782;28;20254;-83
2023/08/21 02:00:55;;;;;;;4.43;4.03;;;24.20;68.80;23.70;96970.00;;;;5036952;28;20282;-83
2023/08/21 02:03:22;;;;;;;4.50;4.10;;;24.10;68.70;23.70;96971.00;;;;5029364;28;20280;-82
2023/08/21 02:05:50;;;;;;;4.53;4.13;;;24.10;68.80;23.70;96968.00;;;;5041776;28;20279;-83
2023/08/21 02:08:18;;;;;;;4.40;4.10;;;24.10;68.80;23.70;96969.00;;;;5032332;28;20683;-83
2023/08/21 02:10:50;;;;;;;3.80;3.60;;;24.20;68.80;23.60;96966.00;;;;5028130;28;20265;-82
2023/08/21 02:13:20;;;;;;;3.80;3.50;;;24.20;68.90;23.60;96965.00;;;;5037933;28;20221;-82
2023/08/21 02:15:47;;;;;;;4.10;3.80;;;24.20;68.80;23.60;96978.00;;;;5028989;28;20228;-83
2023/08/21 02:18:14;;;;;;;4.27;3.97;;;24.20;68.60;23.60;96976.00;;;;5037713;28;20295;-83
2023/08/21 02:20:41;;;;;;;3.77;3.57;;;24.20;69.40;23.60;96983.00;;;;5025631;28;20254;-83
2023/08/21 02:23:09;;;;;;;4.60;4.10;;;24.10;68.60;23.60;96979.00;;;;5037815;28;20210;-82
2023/08/21 02:25:36;;;;;;;4.87;3.63;;;24.20;68.60;23.60;96977.00;;;;5026263;28;20220;-83
2023/08/21 02:28:04;;;;;;;3.90;3.70;;;24.10;68.50;23.60;96980.00;;;;5032610;28;20204;-82
2023/08/21 02:30:32;;;;;;;3.87;3.57;;;24.10;68.50;23.50;96976.00;;;;5020056;28;20287;-83
2023/08/21 02:33:00;;;;;;;4.07;3.80;;;24.10;68.60;23.50;96981.00;;;;5030058;28;20308;-83
2023/08/21 02:35:27;;;;;;;4.03;3.73;;;24.10;68.50;23.50;96977.00;;;;5025701;28;20226;-84
2023/08/21 02:37:54;;;;;;;4.40;4.10;;;24.00;68.40;23.50;96974.00;;;;5039285;28;20211;-83
2023/08/21 02:40:21;;;;;;;4.47;4.10;;;24.00;68.40;23.40;96981.00;;;;5034067;28;20268;-83
2023/08/21 02:42:50;;;;;;;4.20;3.90;;;24.00;69.10;23.40;96977.00;;;;5030907;28;20195;-83
2023/08/21 02:45:18;;;;;;;3.87;3.67;;;24.00;68.40;23.40;96974.00;;;;5019250;28;20218;-82
2023/08/21 02:47:47;;;;;;;3.93;3.50;;;23.90;68.30;23.30;96977.00;;;;5037340;28;20209;-83
2023/08/21 02:50:14;;;;;;;4.10;3.70;;;23.90;68.40;23.30;96986.00;;;;5022207;28;20770;-82
2023/08/21 02:52:41;;;;;;;5.37;3.80;;;23.90;68.50;23.30;96984.00;;;;5029075;28;20246;-83
2023/08/21 02:55:09;;;;;;;4.33;4.03;;;23.90;68.80;23.30;96986.00;;;;5038296;28;20221;-82
2023/08/21 02:57:37;;;;;;;4.33;4.03;;;23.90;69.00;23.20;96988.00;;;;5029603;28;20810;-82
2023/08/21 03:00:06;;;;;;;4.17;3.77;;;23.80;69.10;23.20;96989.00;;;;5024347;28;20264;-82
2023/08/21 03:02:33;;;;;;;4.60;4.20;;;23.80;69.20;23.20;96986.00;;;;5028991;28;20197;-82
2023/08/21 03:05:02;;;;;;;4.57;4.20;;;23.80;69.20;23.20;96983.00;;;;5031438;28;20210;-82
2023/08/21 03:07:31;;;;;;;4.30;3.97;;;23.80;69.40;23.20;96991.00;;;;5040443;28;20599;-82
2023/08/21 03:09:58;;;;;;;4.53;4.13;;;23.80;69.30;23.20;96990.00;;;;5027999;28;20208;-83
2023/08/21 03:12:25;;;;;;;4.77;4.37;;;23.70;69.20;23.20;97000.00;;;;5028384;28;20308;-83
2023/08/21 03:14:53;;;;;;;4.37;4.00;;;23.70;69.20;23.20;96998.00;;;;5026818;28;20223;-83
2023/08/21 03:17:20;;;;;;;4.30;4.00;;;23.70;69.00;23.10;96993.00;;;;5027882;28;20204;-82
2023/08/21 03:19:48;;;;;;;6.53;3.90;;;23.70;69.00;23.10;96993.00;;;;5026511;28;20286;-83
2023/08/21 03:22:17;;;;;;;4.00;3.70;;;23.70;69.60;23.10;96990.00;;;;5027178;28;21439;-83
2023/08/21 03:24:44;;;;;;;4.50;4.20;;;23.60;68.90;23.00;96993.00;;;;5031639;28;20199;-83
2023/08/21 03:27:11;;;;;;;4.53;4.13;;;23.60;68.90;23.00;96990.00;;;;5020431;28;20198;-83
2023/08/21 03:29:39;;;;;;;4.47;4.07;;;23.60;68.80;23.00;96988.00;;;;5028530;28;20191;-83
2023/08/21 03:32:07;;;;;;;4.73;4.33;;;23.60;68.80;22.90;96983.00;;;;5035438;28;20235;-83
2023/08/21 03:34:34;;;;;;;3.83;3.60;;;23.50;68.70;22.90;96990.00;;;;5006561;28;20564;-83
2023/08/21 03:37:01;;;;;;;4.47;3.80;;;23.50;68.80;22.90;96990.00;;;;5017347;28;20310;-83
2023/08/21 03:39:30;;;;;;;4.13;3.83;;;23.50;68.90;22.80;96988.00;;;;5031390;28;20207;-83
2023/08/21 03:41:57;;;;;;;4.17;3.87;;;23.50;68.90;22.80;96992.00;;;;5024326;28;20195;-83
2023/08/21 03:44:24;;;;;;;4.13;3.73;;;23.40;68.90;22.80;97001.00;;;;5019280;28;20286;-83
2023/08/21 03:46:51;;;;;;;4.37;3.97;;;23.40;68.80;22.80;97002.00;;;;5025963;28;20232;-83
2023/08/21 03:49:18;;;;;;;4.50;4.20;;;23.40;68.80;22.70;97000.00;;;;5014672;28;20202;-83
2023/08/21 03:51:45;;;;;;;4.53;4.13;;;23.40;68.80;22.70;96993.00;;;;5024189;28;20190;-83
2023/08/21 03:54:13;;;;;;;3.90;3.70;;;23.40;68.90;22.60;96998.00;;;;5025911;28;20605;-82
2023/08/21 03:56:41;;;;;;;3.70;3.50;;;23.30;69.00;22.60;96990.00;;;;5028667;28;20209;-83
2023/08/21 03:59:08;;;;;;;4.33;4.03;;;23.30;69.70;22.60;96993.00;;;;5017555;28;20672;-82
2023/08/21 04:01:36;;;;;;;4.57;4.17;;;23.30;69.00;22.60;96999.00;;;;5031400;28;20202;-83
2023/08/21 04:04:03;;;;;;;4.30;4.00;;;23.20;69.00;22.50;97001.00;;;;5026785;28;20666;-83
2023/08/21 04:06:30;;;;;;;4.43;4.03;;;23.20;69.20;22.50;96993.00;;;;5018165;28;20224;-83
2023/08/21 04:08:57;;;;;;;4.20;3.90;;;23.20;69.30;22.50;97001.00;;;;5026090;28;20755;-83
2023/08/21 04:11:25;;;;;;;5.00;4.60;;;23.10;69.30;22.40;97004.00;;;;5026811;28;20703;-83
2023/08/21 04:13:54;;;;;;;4.70;4.40;;;23.10;69.30;22.40;96996.00;;;;5031239;28;20610;-83
2023/08/21 04:16:21;;;;;;;4.60;4.30;;;23.10;69.40;22.40;96997.00;;;;5025278;28;20301;-83
2023/08/21 04:18:48;;;;;;;4.53;4.10;;;23.00;69.40;22.40;96998.00;;;;5016395;28;20194;-83
2023/08/21 04:21:15;;;;;;;4.50;4.20;;;23.00;69.60;22.30;96992.00;;;;5026411;28;20281;-83
2023/08/21 04:23:43;;;;;;;5.00;4.50;;;23.00;69.90;22.30;97002.00;;;;5024931;28;20209;-83
2023/08/21 04:26:10;;;;;;;4.23;3.83;;;23.00;70.20;22.30;96999.00;;;;5040090;28;20213;-83
2023/08/21 04:28:38;;;;;;;4.80;4.20;;;23.00;70.30;22.30;96998.00;;;;5024420;28;20191;-83
2023/08/21 04:31:07;;;;;;;4.73;4.37;;;23.00;70.40;22.30;96987.00;;;;5033889;28;20202;-83
2023/08/21 04:33:35;;;;;;;5.27;4.80;;;22.90;70.60;22.40;96998.00;;;;5023971;28;20228;-83
2023/08/21 04:36:03;;;;;;;4.90;4.50;;;23.00;70.80;22.40;96993.00;;;;5024208;28;20220;-83
2023/08/21 04:38:30;;;;;;;5.10;4.70;;;22.90;70.80;22.40;96993.00;;;;5028066;28;20189;-83
2023/08/21 04:41:06;;;;;;;4.80;4.50;;;23.00;70.90;22.40;96998.00;;;;5027113;28;20621;-83
2023/08/21 04:43:33;;;;;;;4.90;4.60;;;23.00;70.80;22.40;96993.00;;;;5029272;28;20201;-83
2023/08/21 04:46:00;;;;;;;4.80;4.40;;;23.00;70.70;22.40;96997.00;;;;5021664;28;20228;-83
2023/08/21 04:48:29;;;;;;;4.83;4.43;;;23.00;70.60;22.40;96996.00;;;;5017919;28;20276;-83
2023/08/21 04:50:56;;;;;;;5.03;4.63;;;23.00;70.60;22.40;97003.00;;;;5032791;28;20205;-82
2023/08/21 04:53:23;;;;;;;5.03;4.47;;;23.00;70.50;22.30;97003.00;;;;5008713;28;20253;-83
2023/08/21 04:55:50;;;;;;;5.00;4.60;;;22.90;70.50;22.30;97006.00;;;;5017448;28;20253;-83
2023/08/21 04:58:18;;;;;;;5.07;4.67;;;22.90;70.50;22.30;97007.00;;;;5034035;28;20198;-83
2023/08/21 05:00:46;;;;;;;4.60;4.30;;;22.90;70.60;22.30;97012.00;;;;5025600;28;20284;-83
2023/08/21 05:03:14;;;;;;;4.70;4.30;;;22.90;70.80;22.30;97007.00;;;;5025574;28;20217;-82
2023/08/21 05:05:42;;;;;;;4.70;4.37;;;22.90;70.90;22.30;97011.00;;;;5033813;28;20213;-83
2023/08/21 05:08:09;;;;;;;5.00;4.60;;;22.90;71.00;22.30;97010.00;;;;5027228;28;20208;-82
2023/08/21 05:10:37;;;;;;;4.43;4.13;;;22.90;71.80;22.30;97013.00;;;;5035124;28;20189;-82
2023/08/21 05:13:05;;;;;;;4.40;4.10;;;22.90;71.20;22.30;97011.00;;;;5035319;28;20217;-83
2023/08/21 05:15:32;;;;;;;5.03;4.60;;;22.90;71.30;22.30;97011.00;;;;5029320;28;20279;-82
2023/08/21 05:17:59;;;;;;;4.70;4.30;;;22.90;71.40;22.30;97014.00;;;;5032626;28;20194;-82
2023/08/21 05:20:27;;;;;;;5.47;5.07;;;22.90;71.70;22.30;97018.00;;;;5039780;28;20197;-83
2023/08/21 05:22:56;;;;;;;5.30;4.90;;;22.90;71.90;22.30;97018.00;;;;5039453;28;20261;-83
2023/08/21 05:25:23;;;;;;;5.60;5.13;;;22.90;72.20;22.30;97015.00;;;;5029852;28;20317;-83
2023/08/21 05:27:50;;;;;;;5.07;4.67;;;22.90;72.30;22.30;97012.00;;;;5031103;28;20199;-83
2023/08/21 05:30:17;;;;;;;5.13;4.67;;;22.90;72.60;22.40;97012.00;;;;5038930;28;20198;-83
2023/08/21 05:32:44;;;;;;;5.50;5.10;;;22.90;72.80;22.40;97014.00;;;;5028479;28;20201;-82
2023/08/21 05:35:11;;;;;;;5.20;4.80;;;22.90;72.90;22.40;97010.00;;;;5037542;28;20640;-82
2023/08/21 05:37:39;;;;;;;5.90;5.40;;;23.00;73.10;22.50;97012.00;;;;5027752;28;20193;-83
2023/08/21 05:40:09;;;;;;;7.10;6.50;;;23.00;73.20;22.50;97016.00;;;;5033421;28;20197;-83
2023/08/21 05:42:36;;;;;;;7.67;6.70;;;23.00;73.70;22.60;97017.00;;;;5037353;28;20225;-83
2023/08/21 05:45:06;;;;;;;8.07;7.27;;;23.00;73.80;22.60;97017.00;;;;5032940;28;20305;-82
2023/08/21 05:47:33;;;;;;;8.03;7.43;;;23.10;74.00;22.70;97021.00;;;;5044922;28;20238;-82
2023/08/21 05:50:01;;;;;;;7.80;7.03;;;23.10;74.10;22.70;97021.00;;;;5037039;28;20236;-82
2023/08/21 05:52:29;;;;;;;6.97;6.27;;;23.20;74.20;22.80;97022.00;;;;5032658;28;20201;-82
2023/08/21 05:54:56;;;;;;;7.43;6.80;;;23.20;74.40;22.80;97024.00;;;;5043119;28;20306;-82
2023/08/21 05:57:24;;;;;;;7.43;6.73;;;23.30;74.50;22.90;97027.00;;;;5043454;28;20282;-82
2023/08/21 05:59:52;;;;;;;7.67;6.87;;;23.30;74.70;23.00;97024.00;;;;5025784;28;20233;-82
2023/08/21 06:02:19;;;;;;;7.67;6.90;;;23.40;74.70;23.00;97034.00;;;;5043546;28;20208;-82
2023/08/21 06:04:47;;;;;;;7.70;6.87;;;23.40;74.60;23.10;97039.00;;;;5041740;28;20234;-82
2023/08/21 06:07:14;;;;;;;7.83;7.20;;;23.50;74.70;23.10;97044.00;;;;5034421;28;20204;-82
2023/08/21 06:09:41;;;;;;;7.60;6.63;;;23.50;74.70;23.20;97040.00;;;;5034954;28;20267;-82
2023/08/21 06:12:09;;;;;;;7.80;7.00;;;23.60;74.70;23.30;97047.00;;;;5040820;28;20201;-82
2023/08/21 06:14:40;;;;;;;8.03;7.23;;;23.70;74.80;23.30;97044.00;;;;5027034;28;20274;-83
2023/08/21 06:17:10;;;;;;;8.27;7.53;;;23.70;74.90;23.40;97044.00;;;;5029611;28;20198;-82
2023/08/21 06:19:37;;;;;;;7.93;7.13;;;23.80;74.80;23.40;97045.00;;;;5034173;28;20759;-82
2023/08/21 06:22:05;;;;;;;8.00;7.30;;;23.80;74.60;23.50;97042.00;;;;5021736;28;20210;-82
2023/08/21 06:24:33;;;;;;;7.30;6.60;;;23.90;74.60;23.60;97045.00;;;;5030805;28;20204;-83
2023/08/21 06:27:10;;;;;;;;;;;;;;;;;;;;;
2023/08/21 06:29:40;;;;;;;7.90;7.20;;;24.00;74.60;23.70;97045.00;;;;5035838;28;20259;-82
2023/08/21 06:32:08;;;;;;;7.20;6.60;;;24.00;74.60;23.80;97046.00;;;;5031385;28;20622;-82
2023/08/21 06:34:35;;;;;;;7.83;7.13;;;24.10;74.60;23.80;97042.00;;;;5033290;28;20248;-82
2023/08/21 06:37:03;;;;;;;6.77;6.17;;;24.10;74.50;23.90;97047.00;;;;5036900;28;20656;-83
2023/08/21 06:39:30;;;;;;;7.67;6.97;;;24.20;74.60;24.00;97042.00;;;;5033432;28;20280;-82
2023/08/21 06:41:58;;;;;;;7.53;6.83;;;24.30;74.60;24.00;97041.00;;;;5031473;28;20225;-82
2023/08/21 06:44:25;;;;;;;7.07;6.47;;;24.30;74.40;24.10;97044.00;;;;5022316;28;20284;-82
2023/08/21 06:46:53;;;;;;;6.67;6.17;;;24.40;74.40;24.20;97045.00;;;;5036914;28;20225;-83
2023/08/21 06:49:21;;;;;;;7.27;6.60;;;24.50;74.60;24.30;97043.00;;;;5030077;28;20298;-81
2023/08/21 06:51:48;;;;;;;7.07;6.47;;;24.60;74.50;24.40;97043.00;;;;5000595;28;20198;-83
2023/08/21 06:54:15;;;;;;;7.00;6.30;;;24.70;74.60;24.50;97046.00;;;;5024642;28;20214;-82
2023/08/21 06:56:42;;;;;;;7.00;6.37;;;24.70;74.60;24.60;97053.00;;;;5027090;28;20754;-82
2023/08/21 06:59:10;;;;;;;7.40;6.77;;;24.80;74.40;24.70;97047.00;;;;5034705;28;20285;-82
2023/08/21 07:01:38;;;;;;;6.97;6.33;;;24.90;74.60;24.80;97051.00;;;;5024402;28;20194;-81
2023/08/21 07:04:06;;;;;;;6.27;5.77;;;25.00;74.80;24.90;97050.00;;;;5024172;28;20221;-83
2023/08/21 07:06:33;;;;;;;6.97;5.80;;;25.10;74.80;25.00;97055.00;;;;5029135;28;20220;-83
2023/08/21 07:09:01;;;;;;;7.07;6.47;;;25.20;74.00;25.10;97059.00;;;;5006420;28;20201;-83
2023/08/21 07:11:28;;;;;;;6.70;6.20;;;25.30;74.50;25.20;97049.00;;;;5018776;28;20280;-83
2023/08/21 07:13:55;;;;;;;6.27;5.77;;;25.40;73.90;25.30;97053.00;;;;5020531;28;20232;-82
2023/08/21 07:16:22;;;;;;;6.67;6.10;;;25.50;73.20;25.40;97052.00;;;;5026206;28;20221;-82
2023/08/21 07:18:49;;;;;;;6.43;5.90;;;25.60;73.20;25.60;97062.00;;;;5036011;28;20251;-82
2023/08/21 07:21:18;;;;;;;6.83;6.27;;;25.70;73.50;25.70;97060.00;;;;5023138;28;20568;-83
2023/08/21 07:23:45;;;;;;;6.63;6.03;;;25.80;74.10;25.80;97057.00;;;;5016532;28;20214;-83
2023/08/21 07:26:12;;;;;;;6.93;5.97;;;26.00;73.40;25.90;97065.00;;;;5010449;28;20702;-83
2023/08/21 07:28:40;;;;;;;5.80;5.30;;;26.10;72.90;26.10;97063.00;;;;5011183;28;20194;-83
2023/08/21 07:31:07;;;;;;;6.27;5.77;;;26.20;73.10;26.20;97062.00;;;;5021456;28;20283;-82
2023/08/21 07:33:35;;;;;;;6.07;5.50;;;26.30;72.60;26.30;97058.00;;;;5022236;28;20198;-83
2023/08/21 07:36:07;;;;;;;6.43;5.93;;;26.50;72.40;26.40;97056.00;;;;5025035;28;20217;-83
2023/08/21 07:38:35;;;;;;;5.83;5.33;;;26.60;72.00;26.60;97066.00;;;;5034098;28;20573;-83
2023/08/21 07:41:08;;;;;;;6.30;5.63;;;26.70;72.30;26.70;97068.00;;;;5034289;28;20285;-83
2023/08/21 07:43:35;;;;;;;5.30;4.90;;;26.80;72.20;26.80;97066.00;;;;5027703;28;20633;-83
2023/08/21 07:46:06;;;;;;;5.83;5.43;;;27.00;71.90;27.00;97061.00;;;;5014518;28;20236;-83
2023/08/21 07:48:34;;;;;;;6.15;5.65;;;27.10;71.50;27.10;97065.00;;;;5034839;28;20208;-83
2023/08/21 07:51:02;;;;;;;5.68;5.28;;;27.20;71.30;27.20;97059.00;;;;5031914;28;20201;-84
2023/08/21 07:53:31;;;;;;;5.28;4.78;;;27.30;71.20;27.30;97066.00;;;;5023428;28;20189;-84
2023/08/21 07:56:00;;;;;;;6.20;5.63;;;27.50;71.20;27.50;97063.00;;;;5018262;28;20233;-82
2023/08/21 07:58:27;;;;;;;5.30;4.80;;;27.60;70.70;27.60;97066.00;;;;5022421;28;20552;-82
2023/08/21 08:00:55;;;;;;;5.35;4.95;;;27.60;70.70;27.70;97063.00;;;;5001799;28;20213;-82
2023/08/21 08:03:22;;;;;;;5.22;4.72;;;27.80;70.80;27.90;97069.00;;;;5022383;28;20263;-83
2023/08/21 08:05:49;;;;;;;5.80;5.30;;;27.90;70.40;28.00;97071.00;;;;5024710;28;20296;-84
2023/08/21 08:08:18;;;;;;;5.13;4.72;;;28.10;70.00;28.20;97068.00;;;;5015154;28;20288;-82
2023/08/21 08:10:45;;;;;;;5.13;4.65;;;28.20;69.80;28.30;97068.00;;;;5013774;28;20840;-83
2023/08/21 08:13:13;;;;;;;5.30;4.80;;;28.30;69.60;28.50;97070.00;;;;5024400;28;20197;-84
2023/08/21 08:15:40;;;;;;;5.07;4.78;;;28.50;69.80;28.60;97074.00;;;;5032345;28;20235;-83
2023/08/21 08:18:13;;;;;;;5.20;4.80;;;28.60;69.50;28.70;97067.00;;;;5034454;28;20213;-82
2023/08/21 08:20:40;;;;;;;4.63;4.32;;;28.80;68.90;28.80;97074.00;;;;5034881;28;20284;-83
2023/08/21 08:23:07;;;;;;;4.90;4.60;;;28.90;69.00;28.90;97078.00;;;;5028513;28;20280;-83
2023/08/21 08:25:35;;;;;;;5.13;4.72;;;29.00;68.30;29.10;97076.00;;;;5014199;28;20653;-83
2023/08/21 08:28:02;;;;;;;5.10;4.80;;;29.10;67.50;29.20;97076.00;;;;5010082;28;20202;-84
2023/08/21 08:30:30;;;;;;;5.05;4.53;;;29.20;67.00;29.30;97076.00;;;;5011843;28;20225;-84
2023/08/21 08:32:58;;;;;;;4.65;4.35;;;29.30;66.50;29.50;97076.00;;;;5021850;28;20224;-81
2023/08/21 08:35:25;;;;;;;5.20;4.75;;;29.50;66.40;29.60;97073.00;;;;5017624;28;20225;-81
2023/08/21 08:37:52;;;;;;;5.13;4.82;;;29.60;66.00;29.80;97078.00;;;;5030740;28;20198;-81
2023/08/21 08:40:20;;;;;;;4.78;4.38;;;29.70;65.30;29.90;97081.00;;;;5037175;28;20541;-82
2023/08/21 08:42:49;;;;;;;5.07;4.68;;;29.90;65.10;30.10;97078.00;;;;5030854;28;20654;-82
2023/08/21 08:45:19;;;;;;;4.50;4.20;;;30.00;64.10;30.20;97084.00;;;;5032459;28;20314;-82
2023/08/21 08:47:48;;;;;;;4.47;4.18;;;30.10;63.50;30.30;97089.00;;;;5039616;28;20219;-83
2023/08/21 08:50:17;;;;;;;3.95;3.65;;;30.30;63.80;30.50;97089.00;;;;5039888;28;20209;-81
2023/08/21 08:52:45;;;;;;;4.40;4.10;;;30.40;64.10;30.60;97087.00;;;;5025707;28;20202;-81
2023/08/21 08:55:12;;;;;;;4.63;4.22;;;30.50;63.00;30.70;97084.00;;;;5041438;28;20308;-83
2023/08/21 08:57:39;;;;;;;4.03;3.83;;;30.70;62.20;30.80;97086.00;;;;5034961;28;20663;-84
2023/08/21 09:00:11;;;;;;;4.55;4.25;;;30.80;62.10;31.00;97078.00;;;;5035212;28;20203;-83
2023/08/21 09:02:39;;;;;;;4.30;4.00;;;30.90;61.80;31.10;97082.00;;;;5025307;28;20206;-82
2023/08/21 09:05:10;;;;;;;4.30;4.00;;;31.00;61.80;31.20;97082.00;;;;5015640;28;20225;-84
2023/08/21 09:07:38;;;;;;;4.70;4.30;;;31.20;60.20;31.30;97076.00;;;;5028988;28;20200;-84
2023/08/21 09:10:14;;;;;;;4.20;3.90;;;31.30;60.70;31.40;97071.00;;;;5035529;28;20203;-83
2023/08/21 09:12:41;;;;;;;4.50;4.20;;;31.40;60.50;31.50;97077.00;;;;5024916;28;20195;-86
2023/08/21 09:15:09;;;;;;;4.38;3.97;;;31.50;60.80;31.70;97081.00;;;;5035362;28;20233;-83
2023/08/21 09:17:36;;;;;;;4.30;4.00;;;31.60;60.40;31.80;97080.00;;;;5022669;28;20266;-82
2023/08/21 09:20:11;;;;;;;4.28;3.97;;;31.80;59.40;32.00;97077.00;;;;5020785;28;20212;-82
2023/08/21 09:22:38;;;;;;;4.18;3.88;;;31.90;59.30;32.10;97076.00;;;;5016437;28;20216;-84
2023/08/21 09:25:10;;;;;;;4.88;4.50;;;32.00;60.10;32.30;97081.00;;;;5003987;28;20569;-84
2023/08/21 09:27:40;;;;;;;3.70;3.50;;;32.20;59.50;32.40;97080.00;;;;5022627;28;20652;-84
2023/08/21 09:30:12;;;;;;;4.47;4.07;;;32.30;59.40;32.50;97077.00;;;;5025330;28;20205;-84
2023/08/21 09:32:55;;;;;;;4.40;3.95;;;32.50;58.80;32.60;97085.00;;;;5020710;28;20206;-84
2023/08/21 09:35:26;;;;;;;4.65;4.30;;;32.60;57.10;32.80;97080.00;;;;5019286;28;20227;-84
2023/08/21 09:37:53;;;;;;;4.22;3.90;;;32.80;57.50;32.90;97082.00;;;;5028220;28;20236;-84
2023/08/21 09:40:22;;;;;;;5.47;3.63;;;32.80;57.80;33.00;97082.00;;;;5016185;28;20567;-84
2023/08/21 09:42:54;;;;;;;4.40;4.10;;;33.00;57.80;33.10;97075.00;;;;5033615;28;20670;-84
2023/08/21 09:45:23;;;;;;;3.90;3.60;;;33.10;57.10;33.30;97078.00;;;;5021246;28;20267;-84
2023/08/21 09:47:52;;;;;;;3.60;3.40;;;33.20;57.00;33.40;97076.00;;;;5030232;28;20206;-84
2023/08/21 09:50:20;;;;;;;4.20;3.85;;;33.40;56.60;33.50;97069.00;;;;5026684;28;20194;-84
2023/08/21 09:52:50;;;;;;;3.85;3.65;;;33.40;56.40;33.70;97072.00;;;;5028912;28;20205;-83
2023/08/21 09:55:19;;;;;;;3.67;3.47;;;33.60;55.90;33.80;97068.00;;;;5035259;28;20602;-84
2023/08/21 09:57:47;;;;;;;4.00;3.70;;;33.70;55.40;33.90;97064.00;;;;5028137;28;20571;-84
2023/08/21 10:00:20;;;;;;;3.10;2.88;;;33.80;55.10;34.00;97065.00;;;;5023587;28;20198;-84
2023/08/21 10:02:54;;;;;;;4.20;3.33;;;33.90;54.50;34.20;97061.00;;;;5022253;28;20197;-83
2023/08/21 10:05:22;;;;;;;3.47;3.28;;;34.10;53.90;34.30;97062.00;;;;5026154;28;20596;-83
2023/08/21 10:07:52;;;;;;;3.60;3.40;;;34.20;53.60;34.40;97061.00;;;;5026476;28;20201;-84
2023/08/21 10:10:20;;;;;;;3.33;3.13;;;34.30;52.60;34.50;97069.00;;;;5028085;28;20206;-84
2023/08/21 10:12:49;;;;;;;3.50;3.15;;;34.40;52.80;34.60;97052.00;;;;5012908;28;20204;-84
2023/08/21 10:15:17;;;;;;;3.13;2.92;;;34.50;52.70;34.70;97060.00;;;;5027350;28;20225;-85
2023/08/21 10:17:45;;;;;;;3.30;3.00;;;34.60;52.20;34.80;97052.00;;;;5019983;28;20198;-83
2023/08/21 10:20:12;;;;;;;3.00;2.80;;;34.70;52.10;34.90;97057.00;;;;5023401;28;20583;-83
2023/08/21 10:22:46;;;;;;;2.83;2.67;;;34.80;52.30;35.00;97050.00;;;;5024464;28;20193;-85
2023/08/21 10:25:22;;;;;;;2.78;2.65;;;34.90;51.80;35.10;97061.00;;;;5022359;28;20213;-84
2023/08/21 10:27:53;;;;;;;2.90;2.70;;;35.00;51.40;35.10;97052.00;;;;5014366;28;20213;-84
2023/08/21 10:30:26;;;;;;;3.30;3.00;;;35.10;51.00;35.20;97055.00;;;;5017558;28;20680;-84
2023/08/21 10:32:56;;;;;;;3.50;3.20;;;35.20;50.00;35.30;97059.00;;;;5017788;28;20205;-84
2023/08/21 10:35:26;;;;;;;3.08;2.88;;;35.30;50.50;35.40;97060.00;;;;5022001;28;20228;-84
2023/08/21 10:38:16;;;;;;;3.30;3.10;;;35.30;50.20;35.50;97059.00;;;;5029700;28;20204;-84
2023/08/21 10:41:08;;;;;;;3.28;3.08;;;35.40;49.40;35.60;97059.00;;;;5015854;28;20668;-84
2023/08/21 10:43:43;;;;;;;3.50;3.30;;;35.60;50.30;35.70;97059.00;;;;5022838;28;20201;-85
2023/08/21 10:46:11;;;;;;;3.25;3.05;;;35.70;49.50;35.70;97063.00;;;;5031232;28;20240;-84
2023/08/21 10:48:40;;;;;;;3.17;2.97;;;35.70;50.00;35.80;97053.00;;;;5027788;28;20193;-84
2023/08/21 10:51:08;;;;;;;3.15;2.95;;;35.80;49.50;35.90;97064.00;;;;5023910;28;20199;-84
2023/08/21 10:53:38;;;;;;;2.67;2.55;;;35.90;49.00;36.00;97058.00;;;;5027348;28;20567;-85
2023/08/21 10:56:08;;;;;;;3.40;3.20;;;35.90;49.20;36.00;97065.00;;;;5022573;28;20310;-85
2023/08/21 10:58:42;;;;;;;3.90;3.70;;;36.00;49.50;36.00;97065.00;;;;5020189;28;20200;-84
2023/08/21 11:01:10;;;;;;;3.63;3.33;;;36.00;48.10;36.00;97059.00;;;;5022376;28;20194;-84